Thrapston, United Kingdom
Current Conditions -  °F | °C
As of 2:50 PM on Wednesday 26 Nov 2014 (Local Time) from EGXT Reporting Station
Moderate Fog Moderate Fog  
Wind Chill: 46°   Ceiling: Unl
Heat Index: 46°   Visibility: 0.18mi
Dew Point: 46°   Wind: 3mph
Humidity: 100%   Direction: 60°ENE
Pressure: 29.83"   Gusts: NA
Location:  52.4°N, 0.54°W
Report Text: EGXT 261450Z AUTO 06003KT 0300 FG VV/// 08/08 Q1010
Loading
Personal Weather Stations






























Interactive Weather Map New forecast layout! Learn more

10-Day Weather Forecast

Advertisements
Track Severe Weather on mobile